Search for airport 
image banner adimage banner ad
image banner ad

SVPN - Protinal

Located in Valencia, Venezuela

ICAO - SVPN, IATA -

Data provided by Airmate  

General information

Coordinates: N10°10'54" W67°58'41"
Elevation is 689 feet MSL.
 
Rated:
View ratings: [VIEW]


View others Airports in Guarico

Operational data

Open for public use
Current time UTC:
Current local time:
METAR: SVVA 241402Z AUTO 06006KT NCD 26/18 Q1016
TAF: TAF SVVA 241321Z 2412/2512 36005KT 9999 FEO016 BKN250 TX33/2420Z TN23/2509Z BECMG 2416/2420 09006KT SCT016 SCT100
View NOTAMs / SUP AIP / TFR affecting this airport [VIEW]
Communications frequencies: [VIEW]

Runways:

Airport contact information

Address: Valencia Venezuela

Satellite view of SVPN